createdAt,value
2019-01-26T00:00:19.381Z,99152.72
2019-01-26T00:03:05.918Z,99148.59
2019-01-26T00:05:52.389Z,99156.06
2019-01-26T00:08:20.165Z,99156.06
2019-01-26T00:10:47.793Z,99142.59
2019-01-26T00:13:15.538Z,99142.59
2019-01-26T00:16:13.781Z,99155.28
2019-01-26T00:18:53.008Z,99155.28
2019-01-26T00:21:20.803Z,99133.45
2019-01-26T00:23:48.781Z,99140.67
2019-01-26T00:26:36.434Z,99131.02
2019-01-26T00:29:04.616Z,99131.02
2019-01-26T00:31:34.390Z,99131.11
2019-01-26T00:34:03.702Z,99132.64
2019-01-26T00:41:54.293Z,99124.42
2019-01-26T00:44:40.761Z,99125.19
2019-01-26T00:47:08.476Z,99125.19
2019-01-26T00:49:57.179Z,99132.05
2019-01-26T00:52:43.715Z,99130.51
2019-01-26T00:55:30.156Z,99131.05
2019-01-26T01:00:31.202Z,99120.92
2019-01-26T01:02:58.982Z,99124.42
2019-01-26T01:05:47.366Z,99124.42
2019-01-26T01:08:15.080Z,99115.70
2019-01-26T01:10:42.842Z,99115.70
2019-01-26T01:13:10.578Z,99114.06
2019-01-26T01:15:57.118Z,99109.18
2019-01-26T01:18:27.340Z,99109.18
2019-01-26T01:21:14.062Z,99111.69
2019-01-26T01:23:42.404Z,99111.69
2019-01-26T01:26:10.131Z,99112.55
2019-01-26T01:28:57.105Z,99111.23
2019-01-26T01:34:33.247Z,99108.37
2019-01-26T01:37:01.042Z,99108.37
2019-01-26T01:39:29.075Z,99102.41
2019-01-26T01:42:17.170Z,99102.41
2019-01-26T01:45:03.626Z,99097.39
2019-01-26T01:50:06.067Z,99087.38
2019-01-26T01:52:33.849Z,99087.38
2019-01-26T01:55:20.603Z,99091.11
2019-01-26T01:58:07.060Z,99095.80
2019-01-26T02:00:34.890Z,99095.80
2019-01-26T02:05:55.729Z,99083.13
2019-01-26T02:08:42.239Z,99083.13
2019-01-26T02:11:10.278Z,99079.54
2019-01-26T02:13:38.050Z,99089.98
2019-01-26T02:16:24.528Z,99089.98
2019-01-26T02:19:11.075Z,99080.27
2019-01-26T02:21:57.877Z,99074.43
2019-01-26T02:24:25.742Z,99074.43
2019-01-26T02:26:55.140Z,99055.83
2019-01-26T02:29:41.942Z,99054.52
2019-01-26T02:32:10.146Z,99054.52
2019-01-26T02:34:37.842Z,99069.88
2019-01-26T02:37:05.581Z,99065.45
2019-01-26T02:39:52.041Z,99057.55
2019-01-26T02:42:38.583Z,99073.60
2019-01-26T02:45:25.061Z,99070.97
2019-01-26T02:48:11.572Z,99065.69
2019-01-26T02:50:39.323Z,99081.16
2019-01-26T02:53:25.779Z,99075.32
2019-01-26T02:55:53.596Z,99075.32
2019-01-26T02:58:21.722Z,99083.23
2019-01-26T03:01:08.220Z,99068.59
2019-01-26T03:03:54.776Z,99066.11
2019-01-26T03:06:41.304Z,99068.62
2019-01-26T03:09:09.051Z,99068.62
2019-01-26T03:11:37.114Z,99061.92
2019-01-26T03:14:23.652Z,99062.08
2019-01-26T03:16:51.390Z,99057.99
2019-01-26T03:19:20.741Z,99057.99
2019-01-26T03:21:48.719Z,99049.52
2019-01-26T03:24:35.266Z,99049.52
2019-01-26T03:27:03.000Z,99047.23
2019-01-26T03:29:52.595Z,99057.43
2019-01-26T03:32:20.466Z,99057.43
2019-01-26T03:34:49.853Z,99060.89
2019-01-26T03:40:05.567Z,99051.06
2019-01-26T03:42:33.274Z,99044.00
2019-01-26T03:45:20.217Z,99039.58
2019-01-26T03:47:48.010Z,99039.58
2019-01-26T03:50:34.791Z,99035.48
2019-01-26T03:53:21.273Z,99026.14
2019-01-26T03:56:07.780Z,99025.09
2019-01-26T03:58:35.594Z,99019.31
2019-01-26T04:06:22.971Z,99029.56
2019-01-26T04:08:50.667Z,99024.92
2019-01-26T04:11:37.189Z,99016.66
2019-01-26T04:14:23.648Z,99021.23
2019-01-26T04:16:51.378Z,99021.23
2019-01-26T04:19:37.822Z,99037.08
2019-01-26T04:22:05.643Z,99015.95
2019-01-26T04:24:33.511Z,99022.41
2019-01-26T04:27:20.053Z,99010.52
2019-01-26T04:29:47.690Z,99010.31
2019-01-26T04:32:15.435Z,99010.31
2019-01-26T04:34:43.146Z,98996.16
2019-01-26T04:37:12.494Z,99002.26
2019-01-26T04:39:41.909Z,99002.52
2019-01-26T04:42:09.647Z,98994.38
2019-01-26T04:44:56.206Z,98983.94
2019-01-26T04:47:30.814Z,98983.94
2019-01-26T04:50:12.421Z,98989.11
2019-01-26T04:52:40.586Z,98982.88
2019-01-26T04:55:08.322Z,98992.01
2019-01-26T04:57:36.284Z,98988.41
2019-01-26T05:00:04.415Z,98991.30
2019-01-26T05:02:32.219Z,98988.16
2019-01-26T05:04:59.986Z,98992.48
2019-01-26T05:07:27.954Z,98981.11
2019-01-26T05:10:14.501Z,98983.53
2019-01-26T05:13:01.229Z,98985.61
2019-01-26T05:15:48.218Z,98993.03
2019-01-26T05:18:15.959Z,98993.03
2019-01-26T05:20:43.948Z,98990.28
2019-01-26T05:23:11.679Z,98990.28
2019-01-26T05:25:39.427Z,98999.64
2019-01-26T05:28:07.205Z,98991.72
2019-01-26T05:30:53.739Z,98991.14
2019-01-26T05:33:40.194Z,99001.58
2019-01-26T05:36:07.892Z,99001.58
2019-01-26T05:38:54.423Z,98987.54
2019-01-26T05:43:55.394Z,98981.90
2019-01-26T05:46:41.904Z,98980.08
2019-01-26T05:49:09.822Z,98983.79
2019-01-26T05:51:37.888Z,98983.79
2019-01-26T05:54:05.580Z,98982.00
2019-01-26T05:56:33.410Z,98987.18
2019-01-26T05:59:02.502Z,98977.58
2019-01-26T06:01:49.015Z,98970.97
2019-01-26T06:04:35.508Z,98983.22
2019-01-26T06:09:36.678Z,98954.02
2019-01-26T06:12:04.444Z,98948.73
2019-01-26T06:14:32.190Z,98955.34
2019-01-26T06:17:00.205Z,98946.95
2019-01-26T06:19:28.044Z,98958.73
2019-01-26T06:25:04.173Z,98951.16
2019-01-26T06:27:50.690Z,98941.91
2019-01-26T06:30:18.375Z,98941.91
2019-01-26T06:33:04.904Z,98930.38
2019-01-26T06:35:32.771Z,98935.31
2019-01-26T06:38:19.584Z,98941.31
2019-01-26T06:41:06.087Z,98943.09
2019-01-26T06:44:07.051Z,98935.17
2019-01-26T06:46:35.393Z,98935.17
2019-01-26T06:51:48.009Z,98909.25
2019-01-26T06:54:16.181Z,98915.36
2019-01-26T06:56:43.986Z,98915.36
2019-01-26T06:59:30.443Z,98904.78
2019-01-26T07:01:58.329Z,98904.78
2019-01-26T07:04:45.214Z,98910.46
2019-01-26T07:07:15.053Z,98910.46
2019-01-26T07:09:42.757Z,98923.53
2019-01-26T07:12:29.276Z,98936.63
2019-01-26T07:14:57.116Z,98945.41
2019-01-26T07:17:27.302Z,98945.41
2019-01-26T07:20:13.846Z,98955.27
2019-01-26T07:25:16.317Z,98954.88
2019-01-26T07:27:44.046Z,98957.16
2019-01-26T07:30:12.136Z,98971.59
2019-01-26T07:32:58.627Z,98971.59
2019-01-26T07:35:45.267Z,98963.19
2019-01-26T07:38:13.905Z,98952.48
2019-01-26T07:40:42.582Z,98952.48
2019-01-26T07:43:10.368Z,98959.45
2019-01-26T07:45:39.683Z,98951.05
2019-01-26T07:48:07.538Z,98939.41
2019-01-26T07:50:35.517Z,98942.88
2019-01-26T07:53:03.384Z,98942.88
2019-01-26T07:55:34.487Z,98942.05
2019-01-26T07:58:21.030Z,98939.16
2019-01-26T08:01:07.478Z,98939.41
2019-01-26T08:03:54.668Z,98939.41
2019-01-26T08:06:22.414Z,98944.94
2019-01-26T08:13:56.422Z,98936.53
2019-01-26T08:16:42.866Z,98929.09
2019-01-26T08:19:10.596Z,98929.09
2019-01-26T08:21:41.204Z,98937.13
2019-01-26T08:24:27.760Z,98948.92
2019-01-26T08:26:55.470Z,98945.17
2019-01-26T08:32:28.385Z,98958.53
2019-01-26T08:38:01.758Z,98954.81
2019-01-26T08:40:37.914Z,98952.62
2019-01-26T08:43:05.968Z,98952.62
2019-01-26T08:45:34.150Z,98958.17
2019-01-26T08:48:01.848Z,98958.17
2019-01-26T08:50:30.816Z,98941.56
2019-01-26T08:52:58.562Z,98941.56
2019-01-26T08:55:26.207Z,98936.03
2019-01-26T08:57:54.165Z,98936.03
2019-01-26T09:00:24.833Z,98931.60
2019-01-26T09:03:11.354Z,98931.25
2019-01-26T09:06:03.959Z,98933.39
2019-01-26T09:08:31.697Z,98938.31
2019-01-26T09:10:59.834Z,98938.31
2019-01-26T09:13:27.775Z,98942.28
2019-01-26T09:15:56.062Z,98944.46
2019-01-26T09:18:26.980Z,98951.07
2019-01-26T09:20:55.314Z,98962.11
2019-01-26T09:23:24.781Z,98962.11
2019-01-26T09:25:52.453Z,98955.14
2019-01-26T09:28:21.955Z,98955.14
2019-01-26T09:30:51.604Z,98946.39
2019-01-26T09:33:19.338Z,98946.39
2019-01-26T09:35:48.667Z,98956.00
2019-01-26T09:38:16.305Z,98950.72
2019-01-26T09:40:44.956Z,98950.72
2019-01-26T09:43:14.094Z,98951.18
2019-01-26T09:45:44.764Z,98952.86
2019-01-26T09:48:12.574Z,98960.79
2019-01-26T09:50:40.517Z,98949.75
2019-01-26T09:53:08.516Z,98960.43
2019-01-26T09:55:36.198Z,98960.43
2019-01-26T09:58:04.171Z,98955.64
2019-01-26T10:00:31.827Z,98955.64
2019-01-26T10:02:59.610Z,98968.72
2019-01-26T10:05:27.772Z,98962.97
2019-01-26T10:07:55.520Z,98962.97
2019-01-26T10:10:23.141Z,98956.72
2019-01-26T10:12:51.163Z,98956.72
2019-01-26T10:15:19.125Z,98956.72
2019-01-26T10:17:46.786Z,98962.00
2019-01-26T10:20:14.832Z,98960.68
2019-01-26T10:22:42.987Z,98950.11
2019-01-26T10:25:10.827Z,98967.03
2019-01-26T10:27:38.764Z,98967.03
2019-01-26T10:30:10.302Z,98956.46
2019-01-26T10:32:37.976Z,98956.96
2019-01-26T10:35:05.910Z,98956.96
2019-01-26T10:37:40.129Z,98952.14
2019-01-26T10:40:06.815Z,98948.78
2019-01-26T10:42:35.767Z,98954.42
2019-01-26T10:45:03.571Z,98947.81
2019-01-26T10:47:33.162Z,98948.78
2019-01-26T10:50:02.547Z,98950.11
2019-01-26T10:52:30.173Z,98950.11
2019-01-26T10:54:58.273Z,98946.99
2019-01-26T10:57:28.293Z,98944.20
2019-01-26T11:00:01.221Z,98943.02
2019-01-26T11:02:33.537Z,98943.02
2019-01-26T11:05:01.206Z,98940.73
2019-01-26T11:07:28.846Z,98932.34
2019-01-26T11:09:56.801Z,98942.41
2019-01-26T11:12:24.464Z,98939.30
2019-01-26T11:14:52.172Z,98923.55
2019-01-26T11:17:27.216Z,98920.91
2019-01-26T11:19:55.056Z,98920.91
2019-01-26T11:22:27.447Z,98925.73
2019-01-26T11:24:55.170Z,98913.69
2019-01-26T11:27:29.076Z,98913.69
2019-01-26T11:29:59.771Z,98909.97
2019-01-26T11:32:29.157Z,98913.46
2019-01-26T11:34:58.357Z,98906.00
2019-01-26T11:37:29.247Z,98906.00
2019-01-26T11:40:05.400Z,98905.53
2019-01-26T11:42:33.112Z,98900.70
2019-01-26T11:45:30.748Z,98900.70
2019-01-26T11:48:00.006Z,98894.95
2019-01-26T11:50:36.217Z,98889.66
2019-01-26T11:53:03.926Z,98882.55
2019-01-26T11:55:53.473Z,98885.44
2019-01-26T11:58:21.179Z,98888.09
2019-01-26T12:01:11.028Z,98891.80
2019-01-26T12:04:14.349Z,98878.34
2019-01-26T12:06:47.514Z,98878.34
2019-01-26T12:09:20.152Z,98871.83
2019-01-26T12:11:48.089Z,98871.25
2019-01-26T12:14:16.089Z,98869.20
2019-01-26T12:16:43.723Z,98866.65
2019-01-26T12:19:11.455Z,98866.65
2019-01-26T12:21:39.352Z,98860.16
2019-01-26T12:24:12.135Z,98854.49
2019-01-26T12:26:39.381Z,98854.49
2019-01-26T12:29:07.398Z,98846.05
2019-01-26T12:31:35.072Z,98847.73
2019-01-26T12:34:03.106Z,98849.44
2019-01-26T12:36:31.383Z,98843.53
2019-01-26T12:38:59.173Z,98833.30
2019-01-26T12:41:28.480Z,98833.30
2019-01-26T12:43:56.153Z,98843.03
2019-01-26T12:46:26.576Z,98838.12
2019-01-26T12:48:57.441Z,98832.92
2019-01-26T12:51:25.173Z,98821.14
2019-01-26T12:53:53.269Z,98821.14
2019-01-26T12:56:21.214Z,98823.78
2019-01-26T12:58:48.869Z,98818.48
2019-01-26T13:01:16.581Z,98822.45
2019-01-26T13:03:46.144Z,98814.14
2019-01-26T13:06:15.510Z,98814.64
2019-01-26T13:08:43.241Z,98811.14
2019-01-26T13:11:11.235Z,98809.46
2019-01-26T13:13:39.354Z,98809.46
2019-01-26T13:16:08.133Z,98794.91
2019-01-26T13:18:36.163Z,98794.91
2019-01-26T13:21:03.797Z,98792.50
2019-01-26T13:23:31.434Z,98791.88
2019-01-26T13:26:06.064Z,98791.88
2019-01-26T13:28:33.724Z,98779.38
2019-01-26T13:31:04.108Z,98779.38
2019-01-26T13:33:34.700Z,98769.27
2019-01-26T13:36:02.419Z,98757.98
2019-01-26T13:38:31.199Z,98757.98
2019-01-26T13:41:01.966Z,98752.08
2019-01-26T13:43:29.654Z,98752.08
2019-01-26T13:45:58.076Z,98742.54
2019-01-26T13:48:25.996Z,98738.41
2019-01-26T13:50:53.640Z,98729.14
2019-01-26T13:53:24.415Z,98726.80
2019-01-26T13:55:52.321Z,98726.80
2019-01-26T13:58:20.441Z,98728.58
2019-01-26T14:00:48.225Z,98723.36
2019-01-26T14:03:16.226Z,98719.39
2019-01-26T14:05:44.310Z,98719.39
2019-01-26T14:08:15.113Z,98724.69
2019-01-26T14:10:43.429Z,98720.84
2019-01-26T14:13:12.447Z,98726.63
2019-01-26T14:15:40.196Z,98714.22
2019-01-26T14:18:08.142Z,98714.22
2019-01-26T14:20:35.892Z,98717.55
2019-01-26T14:23:03.511Z,98717.55
2019-01-26T14:25:34.333Z,98711.75
2019-01-26T14:28:06.077Z,98703.21
2019-01-26T14:30:34.056Z,98698.89
2019-01-26T14:33:03.053Z,98696.72
2019-01-26T14:35:30.690Z,98687.22
2019-01-26T14:37:58.344Z,98693.27
2019-01-26T14:40:29.281Z,98688.88
2019-01-26T14:42:56.948Z,98692.11
2019-01-26T14:45:24.615Z,98687.45
2019-01-26T14:47:52.627Z,98682.27
2019-01-26T14:50:23.082Z,98676.28
2019-01-26T14:52:50.746Z,98676.28
2019-01-26T14:55:18.684Z,98665.34
2019-01-26T14:57:49.051Z,98665.34
2019-01-26T15:00:17.077Z,98663.52
2019-01-26T15:02:47.168Z,98658.73
2019-01-26T15:05:14.796Z,98656.43
2019-01-26T15:07:42.467Z,98656.43
2019-01-26T15:10:10.450Z,98652.94
2019-01-26T15:12:41.233Z,98642.00
2019-01-26T15:15:11.013Z,98642.00
2019-01-26T15:17:41.310Z,98641.65
2019-01-26T15:20:11.120Z,98640.83
2019-01-26T15:22:38.824Z,98624.72
2019-01-26T15:28:01.028Z,98628.94
2019-01-26T15:30:31.203Z,98622.13
2019-01-26T15:33:01.658Z,98622.13
2019-01-26T15:35:32.091Z,98616.61
2019-01-26T15:38:00.201Z,98616.61
2019-01-26T15:40:27.957Z,98609.14
2019-01-26T15:42:55.789Z,98611.56
2019-01-26T15:45:23.523Z,98605.34
2019-01-26T15:47:53.951Z,98593.84
2019-01-26T15:50:23.887Z,98593.84
2019-01-26T15:52:53.817Z,98590.63
2019-01-26T15:55:21.444Z,98592.34
2019-01-26T15:57:49.795Z,98582.73
2019-01-26T16:00:17.498Z,98587.55
2019-01-26T16:02:46.534Z,98571.30
2019-01-26T16:05:14.545Z,98575.77
2019-01-26T16:07:42.277Z,98573.13
2019-01-26T16:10:09.912Z,98570.95
2019-01-26T16:12:37.909Z,98569.63
2019-01-26T16:15:05.637Z,98566.86
2019-01-26T16:17:33.320Z,98562.89
2019-01-26T16:20:01.316Z,98550.88
2019-01-26T16:22:31.028Z,98550.88
2019-01-26T16:24:58.725Z,98556.16
2019-01-26T16:27:28.669Z,98547.02
2019-01-26T16:29:56.401Z,98547.02
2019-01-26T16:32:24.296Z,98538.98
2019-01-26T16:34:54.963Z,98540.94
2019-01-26T16:37:22.592Z,98534.09
2019-01-26T16:39:55.434Z,98534.09
2019-01-26T16:42:24.973Z,98521.03
2019-01-26T16:44:55.065Z,98511.42
2019-01-26T16:47:24.600Z,98511.42
2019-01-26T16:49:54.782Z,98505.34
2019-01-26T16:52:22.479Z,98499.82
2019-01-26T16:54:54.696Z,98499.82
2019-01-26T16:57:22.662Z,98490.63
2019-01-26T16:59:52.249Z,98497.82
2019-01-26T17:02:19.944Z,98497.82
2019-01-26T17:04:47.934Z,98488.57
2019-01-26T17:07:15.566Z,98484.98
2019-01-26T17:09:43.271Z,98480.39
2019-01-26T17:12:14.358Z,98480.39
2019-01-26T17:14:41.990Z,98475.10
2019-01-26T17:17:11.508Z,98472.45
2019-01-26T17:19:44.301Z,98470.63
2019-01-26T17:22:15.036Z,98461.25
2019-01-26T17:24:42.776Z,98462.58
2019-01-26T17:27:10.669Z,98450.95
2019-01-26T17:29:41.142Z,98447.97
2019-01-26T17:32:09.884Z,98447.97
2019-01-26T17:34:37.832Z,98452.53
2019-01-26T17:37:07.131Z,98427.56
2019-01-26T17:39:34.809Z,98427.56
2019-01-26T17:42:04.748Z,98438.61
2019-01-26T17:44:32.175Z,98427.34
2019-01-26T17:47:01.829Z,98429.89
2019-01-26T17:49:29.463Z,98428.22
2019-01-26T17:51:57.151Z,98428.22
2019-01-26T17:54:24.821Z,98415.87
2019-01-26T17:56:56.527Z,98404.61
2019-01-26T17:59:27.220Z,98404.61
2019-01-26T18:02:06.507Z,98400.70
2019-01-26T18:04:35.422Z,98394.97
2019-01-26T18:07:04.796Z,98394.89
2019-01-26T18:09:32.698Z,98394.89
2019-01-26T18:12:00.353Z,98389.04
2019-01-26T18:14:30.024Z,98385.67
2019-01-26T18:16:58.013Z,98378.02
2019-01-26T18:19:25.667Z,98373.36
2019-01-26T18:21:55.280Z,98373.36
2019-01-26T18:24:23.187Z,98373.02
2019-01-26T18:26:52.870Z,98358.73
2019-01-26T18:29:20.599Z,98341.21
2019-01-26T18:31:51.312Z,98341.21
2019-01-26T18:34:19.029Z,98340.86
2019-01-26T18:36:46.697Z,98339.08
2019-01-26T18:39:24.697Z,98338.57
2019-01-26T18:41:55.431Z,98338.57
2019-01-26T18:44:23.411Z,98325.02
2019-01-26T18:46:51.067Z,98325.02
2019-01-26T18:49:21.086Z,98325.77
2019-01-26T18:51:49.744Z,98318.24
2019-01-26T18:54:20.403Z,98318.24
2019-01-26T18:56:49.920Z,98311.69
2019-01-26T18:59:17.872Z,98300.28
2019-01-26T19:01:45.548Z,98301.25
2019-01-26T19:04:13.250Z,98293.95
2019-01-26T19:06:43.934Z,98293.95
2019-01-26T19:09:14.059Z,98293.86
2019-01-26T19:11:47.991Z,98293.86
2019-01-26T19:14:15.980Z,98281.62
2019-01-26T19:16:43.599Z,98272.98
2019-01-26T19:19:11.470Z,98272.98
2019-01-26T19:21:39.366Z,98268.66
2019-01-26T19:24:07.079Z,98268.66
2019-01-26T19:26:37.342Z,98262.31
2019-01-26T19:29:12.885Z,98262.31
2019-01-26T19:31:40.634Z,98258.28
2019-01-26T19:34:08.618Z,98256.11
2019-01-26T19:36:45.547Z,98238.13
2019-01-26T19:39:13.187Z,98240.27
2019-01-26T19:41:43.882Z,98233.20
2019-01-26T19:44:11.586Z,98233.20
2019-01-26T19:46:42.330Z,98238.70
2019-01-26T19:49:12.539Z,98234.94
2019-01-26T19:51:43.265Z,98226.07
2019-01-26T19:54:13.224Z,98224.87
2019-01-26T19:56:43.415Z,98224.87
2019-01-26T19:59:14.130Z,98214.31
2019-01-26T20:01:44.711Z,98214.31
2019-01-26T20:04:12.769Z,98208.53
2019-01-26T20:06:40.431Z,98204.95
2019-01-26T20:09:09.467Z,98204.95
2019-01-26T20:11:42.144Z,98202.02
2019-01-26T20:14:09.952Z,98199.47
2019-01-26T20:16:37.636Z,98184.83
2019-01-26T20:19:05.607Z,98184.83
2019-01-26T20:21:36.043Z,98179.77
2019-01-26T20:24:10.796Z,98180.42
2019-01-26T20:26:41.824Z,98173.18
2019-01-26T20:29:13.940Z,98173.18
2019-01-26T20:31:44.146Z,98159.47
2019-01-26T20:34:12.976Z,98150.95
2019-01-26T20:36:40.678Z,98151.64
2019-01-26T20:39:11.504Z,98150.66
2019-01-26T20:41:41.736Z,98150.88
2019-01-26T20:44:09.406Z,98150.88
2019-01-26T20:46:39.822Z,98139.46
2019-01-26T20:49:07.783Z,98137.38
2019-01-26T20:51:35.489Z,98121.18
2019-01-26T20:54:06.214Z,98121.18
2019-01-26T20:56:34.169Z,98115.62
2019-01-26T20:59:01.854Z,98108.31
2019-01-26T21:01:29.487Z,98108.31
2019-01-26T21:04:00.294Z,98106.30
2019-01-26T21:06:33.151Z,98091.42
2019-01-26T21:09:03.579Z,98095.05
2019-01-26T21:11:32.541Z,98088.73
2019-01-26T21:14:00.203Z,98075.91
2019-01-26T21:16:29.796Z,98075.91
2019-01-26T21:19:19.146Z,98073.78
2019-01-26T21:22:05.632Z,98071.48
2019-01-26T21:25:04.141Z,98058.75
2019-01-26T21:30:56.555Z,98031.78
2019-01-26T21:36:20.465Z,98015.85
2019-01-26T21:41:30.355Z,98004.81
2019-01-26T21:47:03.294Z,97990.38
2019-01-26T21:49:35.241Z,97984.12
2019-01-26T21:52:40.689Z,97984.12
2019-01-26T22:04:08.262Z,97965.08
2019-01-26T22:06:57.208Z,97965.08
2019-01-26T22:13:01.370Z,97942.33
2019-01-26T22:15:29.595Z,97916.97
2019-01-26T22:21:21.242Z,97926.42
2019-01-26T22:24:07.781Z,97926.80
2019-01-26T22:26:54.272Z,97912.01
2019-01-26T22:29:24.184Z,97912.01
2019-01-26T22:31:51.824Z,97896.63
2019-01-26T22:34:19.914Z,97900.12
2019-01-26T22:36:47.563Z,97897.31
2019-01-26T22:39:15.194Z,97895.86
2019-01-26T22:42:02.083Z,97895.21
2019-01-26T22:44:32.245Z,97890.37
2019-01-26T22:47:00.232Z,97879.22
2019-01-26T22:49:30.213Z,97886.86
2019-01-26T22:51:57.906Z,97886.86
2019-01-26T22:54:28.651Z,97867.36
2019-01-26T22:56:56.417Z,97857.77
2019-01-26T23:02:32.157Z,97855.95
2019-01-26T23:04:59.914Z,97843.11
2019-01-26T23:07:27.667Z,97842.13
2019-01-26T23:10:14.117Z,97830.15
2019-01-26T23:13:00.666Z,97830.15
2019-01-26T23:15:47.143Z,97829.37
2019-01-26T23:18:17.292Z,97821.14
2019-01-26T23:20:45.029Z,97821.14
2019-01-26T23:23:37.428Z,97815.05
2019-01-26T23:27:26.535Z,97807.13
2019-01-26T23:29:12.058Z,97807.13
2019-01-26T23:31:40.160Z,97793.74
2019-01-26T23:34:08.122Z,97791.81
2019-01-26T23:36:35.752Z,97775.90
2019-01-26T23:39:04.884Z,97769.27
2019-01-26T23:41:51.333Z,97769.27
2019-01-26T23:44:41.697Z,97766.42
2019-01-26T23:49:41.291Z,97742.36
2019-01-26T23:55:02.190Z,97728.81
2019-01-26T23:57:31.583Z,97723.53
2019-01-26T23:59:59.355Z,97717.20
